CDT,Max TemperatureF,Mean TemperatureF,Min TemperatureF,Max Dew PointF,MeanDew PointF,Min DewpointF,Max Humidity, Mean Humidity, Min Humidity, Max Sea Level PressureIn, Mean Sea Level PressureIn, Min Sea Level PressureIn, Max VisibilityMiles, Mean VisibilityMiles, Min VisibilityMiles, Max Wind SpeedMPH, Mean Wind SpeedMPH, Max Gust SpeedMPH,PrecipitationIn, CloudCover, Events, WindDirDegrees
2014-3-1,78,69,59,70,65,57,97,84,71,30.01,29.95,29.90,10,7,0,28,14,35,0.00,6,Fog,153
2014-3-2,82,61,40,70,63,36,93,79,65,30.11,29.92,29.80,10,8,4,33,20,39,T,7,Rain,140
2014-3-3,47,41,34,36,27,24,85,64,42,30.33,30.24,30.12,10,10,8,30,18,36,T,8,Rain,9
2014-3-4,44,40,36,39,35,30,89,83,76,30.25,30.17,30.07,10,8,2,20,9,24,0.86,8,Rain-Thunderstorm,18
2014-3-5,61,52,43,52,46,39,89,81,72,30.12,30.03,29.97,10,7,4,14,8,16,T,8,,35
2014-3-6,70,59,47,52,47,43,89,65,40,30.24,30.14,30.06,10,9,6,20,9,23,0.00,4,,3
2014-3-7,71,57,43,57,51,41,96,73,49,30.09,29.99,29.90,10,10,7,21,9,26,0.00,4,Fog,133
2014-3-8,73,64,54,65,61,49,93,83,73,30.13,29.97,29.88,10,10,7,28,12,35,T,8,Rain,120
2014-3-9,55,52,48,49,47,44,93,85,77,30.27,30.20,30.13,10,7,2,29,14,35,0.48,8,Rain-Thunderstorm,1
2014-3-10,62,58,53,57,52,48,93,85,77,30.19,30.09,29.94,10,6,1,15,8,18,0.09,8,Rain,334
2014-3-11,77,67,57,64,58,55,93,79,64,29.95,29.81,29.69,10,7,1,13,7,16,T,6,Rain,231
2014-3-12,71,62,52,61,48,33,93,61,29,30.27,29.98,29.75,10,8,1,30,16,38,T,2,Fog,358
2014-3-13,68,56,45,52,42,34,87,56,35,30.35,30.25,30.14,10,10,10,16,9,23,0.00,2,,65
2014-3-14,75,65,55,63,59,52,93,81,68,30.12,30.02,29.95,10,10,10,23,13,28,T,5,,135
2014-3-15,84,75,66,68,66,63,94,84,53,29.96,29.85,29.71,10,7,0,18,10,25,0.00,7,Fog,157
2014-3-16,72,63,53,68,59,36,97,67,37,30.02,29.80,29.70,10,6,0,32,17,40,T,7,Fog-Rain,311
2014-3-17,72,59,45,45,35,26,77,48,19,30.08,29.98,29.83,10,10,10,22,10,29,0.00,1,,321
2014-3-18,84,67,49,59,53,45,90,65,40,29.87,29.79,29.70,10,10,10,28,13,35,0.00,0,,161
2014-3-19,80,69,58,64,61,56,93,76,58,30.13,29.99,29.85,10,10,10,18,11,23,0.00,5,,99
2014-3-20,79,70,61,63,51,42,93,66,38,30.21,30.13,30.05,10,10,10,17,11,21,0.00,7,,65
2014-3-21,78,70,62,66,62,60,93,77,60,30.05,29.95,29.87,10,10,10,22,12,28,0.00,7,,153
2014-3-22,80,74,68,69,68,67,97,83,69,29.97,29.92,29.88,10,8,0,17,10,23,0.00,7,Fog,143
2014-3-23,71,64,56,69,61,52,97,91,84,30.18,30.06,29.95,9,2,0,26,15,31,0.14,8,Fog-Rain,47
2014-3-24,58,55,52,52,50,45,86,82,77,30.18,30.11,30.03,10,8,3,18,11,21,T,8,Rain-Thunderstorm,9
2014-3-25,72,64,56,54,50,41,93,65,36,30.28,30.19,30.12,10,10,4,24,12,30,0.00,7,,52
2014-3-26,70,65,59,62,57,49,93,77,60,30.22,30.08,29.97,10,9,4,24,14,31,0.07,8,Rain,131
2014-3-27,82,74,65,71,68,62,97,86,74,29.95,29.82,29.76,9,6,0,24,16,32,0.01,8,Fog-Rain,154
2014-3-28,98,82,65,70,65,52,97,62,26,29.89,29.78,29.73,10,6,0,25,10,30,0.00,5,Fog,169
2014-3-29,82,71,59,62,55,50,84,59,33,30.20,30.11,29.91,10,10,10,24,14,31,0.00,6,,49
2014-3-30,79,67,55,61,57,52,93,66,39,30.21,30.13,30.04,10,8,0,24,12,33,0.00,5,Fog,125
2014-3-31,82,73,64,66,63,61,90,71,51,30.03,29.94,29.86,10,10,9,28,15,38,0.00,3,,147